Significant Meteorological Information
WSPH31 RPLL 130021
RPHI SIGMET A01 VALID 130025/130425 RPLL-
RPHI MANILA FIR EMBD TS OBS WI N1000 E11540 - N1055 E11430 - N1230
E11605 - N1135 E11725 -
N1000 E11540 TOP FL510 MOV WNW 15KT WKN=
WSPH31 RPLL 130021
RPHI SIGMET A01 VALID 130025/130425 RPLL-
RPHI MANILA FIR EMBD TS OBS WI N1000 E11540 - N1055 E11430 - N1230
E11605 - N1135 E11725 -
N1000 E11540 TOP FL510 MOV WNW 15KT WKN=
Terminal Aerodrome Forecast
TAF RPLL 252300Z 2600/2706 11006KT 9999 FEW025 BKN300 TX31/2606Z TN26/2621Z TEMPO 2600/2606 12007KT 9000 –SHRA FEW022CB SCT023 OVC100 TEMPO 2606/2612 13010KT 8000 –TSRA FEW022CB SCT023 BKN100 =
TAF RPVM 252300Z 2600/2706 21005KT 9999 FEW020 BKN100 TEMPO 2600/2606 19006KT 8000 –RA SCT020 OVC090 TEMPO 2606/2612 20004KT 9000 –SHRA FEW018CB SCT020 BKN100=
TAF RPLC 252300Z 2600/2706 23008KT 9999 SCT020 BKN300 TX34/2606Z TN25/2621Z TEMPO 2600/2606 33006KT 6000 TS –SHRA FEW015CB SCT020 BKN100=
TAF RPLB 252300Z 2600/2624 06008KT 9999 FEW020 SCT080 BKN300 TX32/2606Z TN24/2622Z TEMPO 2600/2606 05011G21KT 6000 TS –SHRA FEW016CB SCT018 OVC080=
TAF RPLI 252300Z 2600/2624 29006KT 9999 FEW019 SCT290 TEMPO 2600/2606 16005KT FEW018CB FEW019 SCT100=
TAF RPVP 252300Z 2600/2624 18006KT 9999 FEW019 SCT080 BKN240 TEMPO 2600/2606 20004KT 9000 –SHRA FEW017CB SCT019 BKN080=
TAF RPVD 252300Z 2600/2624 22004KT 9999 FEW015 SCT080 BKN220 TEMPO 2600/2606 18006KT 9000 –SHRA FEW014CB SCT015 BKN080=
TAF RPMR 252300Z 2600/2624 19005KT 9999 FEW018 SCT080 BKN250 TEMPO 2600/2606 20004KT 9000 –SHRA FEW017CB SCT018 BKN080=
TAF RPMD 252300Z 2600/2624 18004KT 9999 FEW016 BKN290 TEMPO 2600/2606 15006KT 9000 –SHRA FEW015CB SCT016 BKN090=
TAF RPMZ 252300Z 2600/2624 18004KT 9999 FEW018 BKN100 TEMPO 2600/2606 16002KT 9000 –SHRA FEW017CB SCT018 BKN100=

RPLL Forecast Take-Off Condition

TIME (UTC) WIND (dddffKT) TEMP (°C) QNH (hPa) TIME (UTC) WIND (dddffKT) TEMP (°C) QNH (hPa)
0000 12007KT 27.0 1009.0 0400 10006KT 30.0 1008.0
0100 11006KT 27.5 1009.0 0500 12005KT 30.5 1007.5
0200 13006KT 28.5 1008.5 0600 09004KT 31.0 1007.0
0300 12005KT 29.5 1008.5 0700 11006KT 30.5 1006.0

Issued At: NAIA AMSS-WD/PAGASA-DOST FOR 230UTC 12 DECEMBER 2017

Prepared By: CRSED

Checked By: MCM

Airways and Terminal Forecast